sensor_id;sensor_type;location;lat;lon;timestamp;pressure;altitude;pressure_sealevel;temperature;humidity
51313;BME280;37397;53.226;10.400;2024-03-06T00:02:21;101640.94;;;5.72;64.30
51313;BME280;37397;53.226;10.400;2024-03-06T00:04:49;101638.19;;;5.69;64.44
51313;BME280;37397;53.226;10.400;2024-03-06T00:07:16;101630.09;;;5.67;64.28
51313;BME280;37397;53.226;10.400;2024-03-06T00:09:43;101638.59;;;5.67;64.17
51313;BME280;37397;53.226;10.400;2024-03-06T00:12:09;101644.28;;;5.67;64.25
51313;BME280;37397;53.226;10.400;2024-03-06T00:14:37;101646.69;;;5.65;64.30
51313;BME280;37397;53.226;10.400;2024-03-06T00:17:04;101638.44;;;5.51;64.46
51313;BME280;37397;53.226;10.400;2024-03-06T00:19:32;101658.09;;;5.61;64.37
51313;BME280;37397;53.226;10.400;2024-03-06T00:22:00;101652.91;;;5.56;64.11
51313;BME280;37397;53.226;10.400;2024-03-06T00:24:28;101653.69;;;5.57;64.37
51313;BME280;37397;53.226;10.400;2024-03-06T00:26:55;101650.50;;;5.55;64.36
51313;BME280;37397;53.226;10.400;2024-03-06T00:29:21;101656.16;;;5.55;64.36
51313;BME280;37397;53.226;10.400;2024-03-06T00:31:48;101656.59;;;5.53;64.44
51313;BME280;37397;53.226;10.400;2024-03-06T00:34:15;101635.81;;;5.36;64.20
51313;BME280;37397;53.226;10.400;2024-03-06T00:36:43;101654.66;;;5.46;64.16
51313;BME280;37397;53.226;10.400;2024-03-06T00:39:11;101651.47;;;5.44;64.40
51313;BME280;37397;53.226;10.400;2024-03-06T00:41:40;101658.72;;;5.45;64.16
51313;BME280;37397;53.226;10.400;2024-03-06T00:44:08;101663.22;;;5.39;64.13
51313;BME280;37397;53.226;10.400;2024-03-06T00:46:35;101664.44;;;5.42;64.15
51313;BME280;37397;53.226;10.400;2024-03-06T00:49:02;101661.28;;;5.36;64.32
51313;BME280;37397;53.226;10.400;2024-03-06T00:51:28;101669.38;;;5.34;64.35
51313;BME280;37397;53.226;10.400;2024-03-06T00:54:09;101666.16;;;5.32;64.41
51313;BME280;37397;53.226;10.400;2024-03-06T00:56:39;101672.19;;;5.34;64.08
51313;BME280;37397;53.226;10.400;2024-03-06T00:59:06;101668.72;;;5.23;64.07
51313;BME280;37397;53.226;10.400;2024-03-06T01:01:34;101683.16;;;5.32;64.16
51313;BME280;37397;53.226;10.400;2024-03-06T01:04:01;101679.97;;;5.30;64.29
51313;BME280;37397;53.226;10.400;2024-03-06T01:06:28;101673.16;;;5.24;64.42
51313;BME280;37397;53.226;10.400;2024-03-06T01:08:55;101672.78;;;5.22;64.43
51313;BME280;37397;53.226;10.400;2024-03-06T01:11:24;101681.63;;;5.24;64.24
51313;BME280;37397;53.226;10.400;2024-03-06T01:13:51;101675.25;;;5.16;64.23
51313;BME280;37397;53.226;10.400;2024-03-06T01:16:17;101679.28;;;5.19;64.24
51313;BME280;37397;53.226;10.400;2024-03-06T01:18:44;101689.75;;;5.22;64.39
51313;BME280;37397;53.226;10.400;2024-03-06T01:21:11;101677.72;;;5.14;64.33
51313;BME280;37397;53.226;10.400;2024-03-06T01:23:38;101690.59;;;5.19;64.32
51313;BME280;37397;53.226;10.400;2024-03-06T01:26:04;101681.38;;;5.11;64.10
51313;BME280;37397;53.226;10.400;2024-03-06T01:28:31;101689.88;;;5.11;64.17
51313;BME280;37397;53.226;10.400;2024-03-06T01:30:58;101672.97;;;5.04;64.31
51313;BME280;37397;53.226;10.400;2024-03-06T01:33:25;101687.41;;;5.13;64.30
51313;BME280;37397;53.226;10.400;2024-03-06T01:35:53;101700.41;;;5.10;64.59
51313;BME280;37397;53.226;10.400;2024-03-06T01:38:20;101688.31;;;5.06;64.34
51313;BME280;37397;53.226;10.400;2024-03-06T01:40:47;101694.34;;;5.08;64.16
51313;BME280;37397;53.226;10.400;2024-03-06T01:43:21;101685.19;;;4.97;64.09
51313;BME280;37397;53.226;10.400;2024-03-06T01:45:50;101696.00;;;5.06;64.36
51313;BME280;37397;53.226;10.400;2024-03-06T01:48:17;101706.13;;;5.03;64.17
51313;BME280;37397;53.226;10.400;2024-03-06T01:50:46;101694.91;;;4.96;64.26
51313;BME280;37397;53.226;10.400;2024-03-06T01:53:15;101697.31;;;4.98;64.07
51313;BME280;37397;53.226;10.400;2024-03-06T01:55:43;101711.81;;;5.00;64.24
51313;BME280;37397;53.226;10.400;2024-03-06T01:58:10;101691.72;;;4.90;63.97
51313;BME280;37397;53.226;10.400;2024-03-06T02:00:37;101710.25;;;4.95;64.03
51313;BME280;37397;53.226;10.400;2024-03-06T02:03:04;101701.00;;;4.91;64.24
51313;BME280;37397;53.226;10.400;2024-03-06T02:05:31;101709.47;;;4.91;64.12
51313;BME280;37397;53.226;10.400;2024-03-06T02:07:58;101710.34;;;4.88;64.19
51313;BME280;37397;53.226;10.400;2024-03-06T02:10:29;101711.94;;;4.89;64.43
51313;BME280;37397;53.226;10.400;2024-03-06T02:12:56;101709.94;;;4.86;64.13
51313;BME280;37397;53.226;10.400;2024-03-06T02:15:24;101723.28;;;4.85;64.02
51313;BME280;37397;53.226;10.400;2024-03-06T02:17:51;101721.25;;;4.86;64.17
51313;BME280;37397;53.226;10.400;2024-03-06T02:20:25;101720.88;;;4.84;63.80
51313;BME280;37397;53.226;10.400;2024-03-06T02:22:51;101716.84;;;4.81;64.34
51313;BME280;37397;53.226;10.400;2024-03-06T02:25:18;101715.25;;;4.80;64.12
51313;BME280;37397;53.226;10.400;2024-03-06T02:27:46;101720.56;;;4.74;64.11
51313;BME280;37397;53.226;10.400;2024-03-06T02:30:14;101728.22;;;4.78;64.34
51313;BME280;37397;53.226;10.400;2024-03-06T02:32:41;101712.91;;;4.71;64.07
51313;BME280;37397;53.226;10.400;2024-03-06T02:35:10;101725.84;;;4.72;64.02
51313;BME280;37397;53.226;10.400;2024-03-06T02:37:37;101730.72;;;4.68;64.28
51313;BME280;37397;53.226;10.400;2024-03-06T02:40:05;101731.53;;;4.69;64.36
51313;BME280;37397;53.226;10.400;2024-03-06T02:42:33;101725.88;;;4.65;64.30
51313;BME280;37397;53.226;10.400;2024-03-06T02:45:00;101723.88;;;4.66;64.21
51313;BME280;37397;53.226;10.400;2024-03-06T02:47:26;101725.88;;;4.65;64.08
51313;BME280;37397;53.226;10.400;2024-03-06T02:49:53;101728.34;;;4.63;64.24
51313;BME280;37397;53.226;10.400;2024-03-06T02:52:19;101723.09;;;4.62;64.38
51313;BME280;37397;53.226;10.400;2024-03-06T02:54:46;101722.31;;;4.61;64.17
51313;BME280;37397;53.226;10.400;2024-03-06T02:57:12;101727.59;;;4.59;64.67
51313;BME280;37397;53.226;10.400;2024-03-06T02:59:39;101720.69;;;4.60;64.23
51313;BME280;37397;53.226;10.400;2024-03-06T03:02:07;101731.25;;;4.56;64.60
51313;BME280;37397;53.226;10.400;2024-03-06T03:04:34;101732.44;;;4.55;64.41
51313;BME280;37397;53.226;10.400;2024-03-06T03:07:00;101729.25;;;4.53;64.33
51313;BME280;37397;53.226;10.400;2024-03-06T03:09:27;101726.41;;;4.53;64.13
51313;BME280;37397;53.226;10.400;2024-03-06T03:11:54;101726.41;;;4.53;64.11
51313;BME280;37397;53.226;10.400;2024-03-06T03:14:21;101737.72;;;4.53;64.36
51313;BME280;37397;53.226;10.400;2024-03-06T03:16:48;101730.50;;;4.48;64.37
51313;BME280;37397;53.226;10.400;2024-03-06T03:19:15;101728.50;;;4.45;64.42
51313;BME280;37397;53.226;10.400;2024-03-06T03:21:45;101729.28;;;4.46;64.31
51313;BME280;37397;53.226;10.400;2024-03-06T03:24:12;101731.75;;;4.44;64.38
51313;BME280;37397;53.226;10.400;2024-03-06T03:26:38;101733.78;;;4.43;64.59
51313;BME280;37397;53.226;10.400;2024-03-06T03:29:05;101739.81;;;4.45;64.51
51313;BME280;37397;53.226;10.400;2024-03-06T03:31:31;101743.03;;;4.44;64.46
51313;BME280;37397;53.226;10.400;2024-03-06T03:33:59;101735.00;;;4.38;64.29
51313;BME280;37397;53.226;10.400;2024-03-06T03:36:26;101743.88;;;4.41;64.34
51313;BME280;37397;53.226;10.400;2024-03-06T03:38:52;101748.72;;;4.40;64.46
51313;BME280;37397;53.226;10.400;2024-03-06T03:41:19;101744.69;;;4.37;64.23
51313;BME280;37397;53.226;10.400;2024-03-06T03:43:46;101754.41;;;4.36;64.31
51313;BME280;37397;53.226;10.400;2024-03-06T03:46:12;101747.97;;;4.32;64.35
51313;BME280;37397;53.226;10.400;2024-03-06T03:48:40;101751.59;;;4.36;64.68
51313;BME280;37397;53.226;10.400;2024-03-06T03:51:06;101755.25;;;4.33;64.27
51313;BME280;37397;53.226;10.400;2024-03-06T03:53:33;101758.06;;;4.33;64.48
51313;BME280;37397;53.226;10.400;2024-03-06T03:56:01;101752.41;;;4.30;64.50
51313;BME280;37397;53.226;10.400;2024-03-06T03:58:28;101758.53;;;4.28;64.42
51313;BME280;37397;53.226;10.400;2024-03-06T04:00:54;101760.09;;;4.29;64.42
51313;BME280;37397;53.226;10.400;2024-03-06T04:03:22;101758.94;;;4.27;64.63
51313;BME280;37397;53.226;10.400;2024-03-06T04:05:49;101766.59;;;4.26;64.59
51313;BME280;37397;53.226;10.400;2024-03-06T04:08:16;101762.97;;;4.26;64.75
51313;BME280;37397;53.226;10.400;2024-03-06T04:10:43;101773.84;;;4.27;64.68
51313;BME280;37397;53.226;10.400;2024-03-06T04:13:14;101776.28;;;4.25;64.24
51313;BME280;37397;53.226;10.400;2024-03-06T04:15:41;101776.72;;;4.24;64.45
51313;BME280;37397;53.226;10.400;2024-03-06T04:18:08;101771.47;;;4.22;64.57
51313;BME280;37397;53.226;10.400;2024-03-06T04:20:34;101761.81;;;4.16;64.62
51313;BME280;37397;53.226;10.400;2024-03-06T04:23:01;101771.06;;;4.20;64.48
51313;BME280;37397;53.226;10.400;2024-03-06T04:25:28;101769.47;;;4.19;64.43
51313;BME280;37397;53.226;10.400;2024-03-06T04:27:55;101772.28;;;4.19;65.09
51313;BME280;37397;53.226;10.400;2024-03-06T04:30:22;101773.91;;;4.16;64.59
51313;BME280;37397;53.226;10.400;2024-03-06T04:32:48;101770.69;;;4.18;64.81
51313;BME280;37397;53.226;10.400;2024-03-06T04:35:15;101783.19;;;4.17;64.85
51313;BME280;37397;53.226;10.400;2024-03-06T04:37:42;101774.34;;;4.11;64.78
51313;BME280;37397;53.226;10.400;2024-03-06T04:40:11;101784.41;;;4.16;64.67
51313;BME280;37397;53.226;10.400;2024-03-06T04:42:37;101773.97;;;4.09;65.03
51313;BME280;37397;53.226;10.400;2024-03-06T04:45:24;101776.38;;;4.11;64.82
51313;BME280;37397;53.226;10.400;2024-03-06T04:47:52;101780.41;;;4.10;64.80
51313;BME280;37397;53.226;10.400;2024-03-06T04:50:18;101778.00;;;4.08;64.76
51313;BME280;37397;53.226;10.400;2024-03-06T04:52:45;101788.47;;;4.11;65.07
51313;BME280;37397;53.226;10.400;2024-03-06T04:55:12;101790.91;;;4.09;65.04
51313;BME280;37397;53.226;10.400;2024-03-06T04:57:42;101794.53;;;4.10;64.84
51313;BME280;37397;53.226;10.400;2024-03-06T05:00:10;101796.16;;;4.11;65.07
51313;BME280;37397;53.226;10.400;2024-03-06T05:02:38;101791.34;;;4.08;65.33
51313;BME280;37397;53.226;10.400;2024-03-06T05:05:23;101800.59;;;4.08;65.05
51313;BME280;37397;53.226;10.400;2024-03-06T05:08:08;101796.56;;;4.06;65.14
51313;BME280;37397;53.226;10.400;2024-03-06T05:10:53;101809.50;;;4.03;65.19
51313;BME280;37397;53.226;10.400;2024-03-06T05:13:37;101811.09;;;4.04;65.19
51313;BME280;37397;53.226;10.400;2024-03-06T05:16:21;101809.91;;;4.01;65.25
51313;BME280;37397;53.226;10.400;2024-03-06T05:19:09;101820.84;;;3.99;65.41
51313;BME280;37397;53.226;10.400;2024-03-06T05:21:54;101826.88;;;4.01;65.23
51313;BME280;37397;53.226;10.400;2024-03-06T05:24:38;101828.09;;;3.97;65.01
51313;BME280;37397;53.226;10.400;2024-03-06T05:27:22;101844.25;;;3.96;65.33
51313;BME280;37397;53.226;10.400;2024-03-06T05:30:07;101843.44;;;3.96;65.00
51313;BME280;37397;53.226;10.400;2024-03-06T05:32:52;101845.06;;;3.93;65.47
51313;BME280;37397;53.226;10.400;2024-03-06T05:35:36;101849.47;;;3.94;65.52
51313;BME280;37397;53.226;10.400;2024-03-06T05:38:20;101843.44;;;3.92;65.39
51313;BME280;37397;53.226;10.400;2024-03-06T05:41:06;101853.13;;;3.95;65.64
51313;BME280;37397;53.226;10.400;2024-03-06T05:43:50;101857.56;;;3.92;65.55
51313;BME280;37397;53.226;10.400;2024-03-06T05:46:34;101855.97;;;3.91;65.55
51313;BME280;37397;53.226;10.400;2024-03-06T05:49:18;101859.22;;;3.90;65.31
51313;BME280;37397;53.226;10.400;2024-03-06T05:52:02;101853.97;;;3.88;65.36
51313;BME280;37397;53.226;10.400;2024-03-06T05:54:46;101861.22;;;3.89;65.40
51313;BME280;37397;53.226;10.400;2024-03-06T05:57:30;101865.66;;;3.87;65.20
51313;BME280;37397;53.226;10.400;2024-03-06T06:00:16;101864.47;;;3.80;65.62
51313;BME280;37397;53.226;10.400;2024-03-06T06:02:44;101869.72;;;3.82;65.74
51313;BME280;37397;53.226;10.400;2024-03-06T06:05:12;101878.16;;;3.86;65.40
51313;BME280;37397;53.226;10.400;2024-03-06T06:07:44;101878.19;;;3.82;65.48
51313;BME280;37397;53.226;10.400;2024-03-06T06:10:11;101888.66;;;3.85;65.43
51313;BME280;37397;53.226;10.400;2024-03-06T06:12:37;101882.19;;;3.84;65.54
51313;BME280;37397;53.226;10.400;2024-03-06T06:15:04;101891.09;;;3.87;65.68
51313;BME280;37397;53.226;10.400;2024-03-06T06:17:31;101896.72;;;3.87;65.81
51313;BME280;37397;53.226;10.400;2024-03-06T06:19:58;101877.41;;;3.74;65.58
51313;BME280;37397;53.226;10.400;2024-03-06T06:22:27;101899.97;;;3.85;66.12
51313;BME280;37397;53.226;10.400;2024-03-06T06:24:53;101894.31;;;3.85;65.54
51313;BME280;37397;53.226;10.400;2024-03-06T06:27:22;101898.34;;;3.84;65.57
51313;BME280;37397;53.226;10.400;2024-03-06T06:29:48;101908.03;;;3.79;65.98
51313;BME280;37397;53.226;10.400;2024-03-06T06:32:15;101910.44;;;3.84;65.87
51313;BME280;37397;53.226;10.400;2024-03-06T06:34:41;101919.72;;;3.85;65.93
51313;BME280;37397;53.226;10.400;2024-03-06T06:37:08;101908.00;;;3.83;65.98
51313;BME280;37397;53.226;10.400;2024-03-06T06:39:34;101909.66;;;3.77;65.74
51313;BME280;37397;53.226;10.400;2024-03-06T06:42:01;101924.56;;;3.81;65.68
51313;BME280;37397;53.226;10.400;2024-03-06T06:44:29;101937.06;;;3.87;66.00
51313;BME280;37397;53.226;10.400;2024-03-06T06:46:56;101934.66;;;3.82;66.10
51313;BME280;37397;53.226;10.400;2024-03-06T06:49:23;101939.88;;;3.87;66.10
51313;BME280;37397;53.226;10.400;2024-03-06T06:51:50;101944.31;;;3.88;65.74
51313;BME280;37397;53.226;10.400;2024-03-06T06:54:17;101944.31;;;3.88;66.01
51313;BME280;37397;53.226;10.400;2024-03-06T06:56:43;101947.16;;;3.88;66.07
51313;BME280;37397;53.226;10.400;2024-03-06T06:59:10;101955.63;;;3.88;66.00
51313;BME280;37397;53.226;10.400;2024-03-06T07:01:37;101962.06;;;3.89;66.15
51313;BME280;37397;53.226;10.400;2024-03-06T07:04:03;101949.56;;;3.82;65.90
51313;BME280;37397;53.226;10.400;2024-03-06T07:06:30;101954.38;;;3.89;66.12
51313;BME280;37397;53.226;10.400;2024-03-06T07:08:56;101957.22;;;3.89;65.83
51313;BME280;37397;53.226;10.400;2024-03-06T07:11:23;101966.91;;;3.88;66.12
51313;BME280;37397;53.226;10.400;2024-03-06T07:13:50;101958.03;;;3.90;65.84
51313;BME280;37397;53.226;10.400;2024-03-06T07:16:17;101968.50;;;3.89;66.26
51313;BME280;37397;53.226;10.400;2024-03-06T07:18:44;101967.72;;;3.89;66.23
51313;BME280;37397;53.226;10.400;2024-03-06T07:21:10;101965.69;;;3.93;66.03
51313;BME280;37397;53.226;10.400;2024-03-06T07:23:37;101961.28;;;3.88;66.41
51313;BME280;37397;53.226;10.400;2024-03-06T07:26:04;101972.56;;;3.92;66.02
51313;BME280;37397;53.226;10.400;2024-03-06T07:28:31;101985.44;;;3.93;66.28
51313;BME280;37397;53.226;10.400;2024-03-06T07:30:59;101973.34;;;3.92;66.41
51313;BME280;37397;53.226;10.400;2024-03-06T07:33:25;101983.84;;;3.95;66.42
51313;BME280;37397;53.226;10.400;2024-03-06T07:35:52;102001.16;;;3.97;66.33
51313;BME280;37397;53.226;10.400;2024-03-06T07:38:19;102005.63;;;3.98;66.63
51313;BME280;37397;53.226;10.400;2024-03-06T07:40:47;101984.25;;;3.94;66.37
51313;BME280;37397;53.226;10.400;2024-03-06T07:43:13;101992.69;;;3.97;66.73
51313;BME280;37397;53.226;10.400;2024-03-06T07:45:41;102000.78;;;4.03;66.63
51313;BME280;37397;53.226;10.400;2024-03-06T07:48:08;101992.72;;;3.90;66.70
51313;BME280;37397;53.226;10.400;2024-03-06T07:50:36;102008.84;;;4.08;66.82
51313;BME280;37397;53.226;10.400;2024-03-06T07:53:03;102008.84;;;4.08;67.11
51313;BME280;37397;53.226;10.400;2024-03-06T07:55:29;102018.50;;;4.10;66.97
51313;BME280;37397;53.226;10.400;2024-03-06T07:57:56;102012.88;;;4.14;67.12
51313;BME280;37397;53.226;10.400;2024-03-06T08:00:23;102011.25;;;4.13;67.21
51313;BME280;37397;53.226;10.400;2024-03-06T08:02:50;102009.63;;;4.15;67.33
51313;BME280;37397;53.226;10.400;2024-03-06T08:05:17;102029.78;;;4.21;67.42
51313;BME280;37397;53.226;10.400;2024-03-06T08:07:44;102022.50;;;4.20;67.06
51313;BME280;37397;53.226;10.400;2024-03-06T08:10:12;102030.59;;;4.25;67.26
51313;BME280;37397;53.226;10.400;2024-03-06T08:12:43;102035.44;;;4.28;67.14
51313;BME280;37397;53.226;10.400;2024-03-06T08:15:11;102045.09;;;4.31;67.59
51313;BME280;37397;53.226;10.400;2024-03-06T08:17:41;102033.00;;;4.30;67.33
51313;BME280;37397;53.226;10.400;2024-03-06T08:20:09;102034.59;;;4.35;67.29
51313;BME280;37397;53.226;10.400;2024-03-06T08:22:38;102032.56;;;4.35;67.09
51313;BME280;37397;53.226;10.400;2024-03-06T08:25:09;102035.78;;;4.37;67.27
51313;BME280;37397;53.226;10.400;2024-03-06T08:27:38;102015.22;;;4.30;67.53
51313;BME280;37397;53.226;10.400;2024-03-06T08:30:06;102044.69;;;4.40;67.04
51313;BME280;37397;53.226;10.400;2024-03-06T08:32:34;102043.44;;;4.44;67.09
51313;BME280;37397;53.226;10.400;2024-03-06T08:35:03;102049.09;;;4.48;67.42
51313;BME280;37397;53.226;10.400;2024-03-06T08:37:33;102043.03;;;4.46;67.34
51313;BME280;37397;53.226;10.400;2024-03-06T08:40:00;102046.66;;;4.50;67.33
51313;BME280;37397;53.226;10.400;2024-03-06T08:42:28;102042.63;;;4.51;67.42
51313;BME280;37397;53.226;10.400;2024-03-06T08:44:55;102050.69;;;4.56;67.65
51313;BME280;37397;53.226;10.400;2024-03-06T08:47:23;102065.22;;;4.58;67.26
51313;BME280;37397;53.226;10.400;2024-03-06T08:49:50;102047.44;;;4.57;67.17
51313;BME280;37397;53.226;10.400;2024-03-06T08:52:16;102060.34;;;4.62;67.37
51313;BME280;37397;53.226;10.400;2024-03-06T08:54:43;102057.91;;;4.64;67.36
51313;BME280;37397;53.226;10.400;2024-03-06T08:57:10;102059.94;;;4.67;67.58
51313;BME280;37397;53.226;10.400;2024-03-06T08:59:37;102070.81;;;4.72;67.51
51313;BME280;37397;53.226;10.400;2024-03-06T09:02:15;102073.22;;;4.74;67.19
51313;BME280;37397;53.226;10.400;2024-03-06T09:04:43;102074.03;;;4.74;67.45
51313;BME280;37397;53.226;10.400;2024-03-06T09:07:10;102075.66;;;4.75;67.53
51313;BME280;37397;53.226;10.400;2024-03-06T09:09:37;102080.88;;;4.81;67.31
51313;BME280;37397;53.226;10.400;2024-03-06T09:12:05;102086.91;;;4.83;67.24
51313;BME280;37397;53.226;10.400;2024-03-06T09:14:33;102082.88;;;4.84;67.37
51313;BME280;37397;53.226;10.400;2024-03-06T09:17:00;102090.94;;;4.89;67.15
51313;BME280;37397;53.226;10.400;2024-03-06T09:19:28;102085.28;;;4.89;67.43
51313;BME280;37397;53.226;10.400;2024-03-06T09:21:54;102087.69;;;4.90;67.25
51313;BME280;37397;53.226;10.400;2024-03-06T09:24:22;102088.91;;;4.93;67.65
51313;BME280;37397;53.226;10.400;2024-03-06T09:26:52;102096.97;;;4.98;67.36
51313;BME280;37397;53.226;10.400;2024-03-06T09:29:19;102099.00;;;4.98;67.50
51313;BME280;37397;53.226;10.400;2024-03-06T09:31:46;102100.19;;;5.00;67.42
51313;BME280;37397;53.226;10.400;2024-03-06T09:34:16;102107.06;;;5.03;67.38
51313;BME280;37397;53.226;10.400;2024-03-06T09:36:47;102116.34;;;5.03;67.70
51313;BME280;37397;53.226;10.400;2024-03-06T09:39:15;102113.91;;;5.05;67.83
51313;BME280;37397;53.226;10.400;2024-03-06T09:41:52;102120.34;;;5.09;67.57
51313;BME280;37397;53.226;10.400;2024-03-06T09:44:20;102111.06;;;5.09;67.78
51313;BME280;37397;53.226;10.400;2024-03-06T09:46:48;102118.34;;;5.14;67.62
51313;BME280;37397;53.226;10.400;2024-03-06T09:49:19;102115.88;;;5.16;67.93
51313;BME280;37397;53.226;10.400;2024-03-06T09:51:47;102114.66;;;5.17;67.66
51313;BME280;37397;53.226;10.400;2024-03-06T09:54:14;102114.25;;;5.22;67.52
51313;BME280;37397;53.226;10.400;2024-03-06T09:56:46;102117.06;;;5.22;67.64
51313;BME280;37397;53.226;10.400;2024-03-06T09:59:13;102119.09;;;5.25;67.61
51313;BME280;37397;53.226;10.400;2024-03-06T10:01:54;102112.59;;;5.24;67.59
51313;BME280;37397;53.226;10.400;2024-03-06T10:04:22;102121.47;;;5.30;67.38
51313;BME280;37397;53.226;10.400;2024-03-06T10:06:56;102115.81;;;5.30;67.54
51313;BME280;37397;53.226;10.400;2024-03-06T10:09:23;102121.88;;;5.32;67.47
51313;BME280;37397;53.226;10.400;2024-03-06T10:11:50;102119.00;;;5.36;67.65
51313;BME280;37397;53.226;10.400;2024-03-06T10:14:20;102123.88;;;5.35;67.81
51313;BME280;37397;53.226;10.400;2024-03-06T10:16:57;102123.84;;;5.39;67.95
51313;BME280;37397;53.226;10.400;2024-03-06T10:19:26;102127.88;;;5.41;67.69
51313;BME280;37397;53.226;10.400;2024-03-06T10:21:56;102121.41;;;5.44;67.93
51313;BME280;37397;53.226;10.400;2024-03-06T10:24:28;102134.31;;;5.45;67.81
51313;BME280;37397;53.226;10.400;2024-03-06T10:26:56;102127.81;;;5.48;67.94
51313;BME280;37397;53.226;10.400;2024-03-06T10:29:26;102129.06;;;5.47;68.09
51313;BME280;37397;53.226;10.400;2024-03-06T10:31:57;102130.25;;;5.50;67.84
51313;BME280;37397;53.226;10.400;2024-03-06T10:34:25;102135.50;;;5.52;67.74
51313;BME280;37397;53.226;10.400;2024-03-06T10:37:02;102129.81;;;5.55;67.77
51313;BME280;37397;53.226;10.400;2024-03-06T10:39:33;102130.22;;;5.54;67.79
51313;BME280;37397;53.226;10.400;2024-03-06T10:42:06;102129.38;;;5.57;67.55
51313;BME280;37397;53.226;10.400;2024-03-06T10:44:34;102130.97;;;5.61;67.73
51313;BME280;37397;53.226;10.400;2024-03-06T10:47:03;102124.53;;;5.61;67.85
51313;BME280;37397;53.226;10.400;2024-03-06T10:49:31;102121.25;;;5.66;67.36
51313;BME280;37397;53.226;10.400;2024-03-06T10:51:59;102123.66;;;5.68;67.53
51313;BME280;37397;53.226;10.400;2024-03-06T10:54:27;102127.69;;;5.70;67.93
51313;BME280;37397;53.226;10.400;2024-03-06T10:56:55;102127.66;;;5.74;67.42
51313;BME280;37397;53.226;10.400;2024-03-06T10:59:25;102135.75;;;5.75;67.69
51313;BME280;37397;53.226;10.400;2024-03-06T11:01:58;102133.31;;;5.77;67.26
51313;BME280;37397;53.226;10.400;2024-03-06T11:04:30;102131.69;;;5.80;67.36
51313;BME280;37397;53.226;10.400;2024-03-06T11:07:01;102125.59;;;5.81;67.49
51313;BME280;37397;53.226;10.400;2024-03-06T11:09:33;102129.22;;;5.82;67.39
51313;BME280;37397;53.226;10.400;2024-03-06T11:12:02;102136.47;;;5.87;67.31
51313;BME280;37397;53.226;10.400;2024-03-06T11:14:31;102125.16;;;5.87;67.02
51313;BME280;37397;53.226;10.400;2024-03-06T11:17:04;102139.69;;;5.89;66.92
51313;BME280;37397;53.226;10.400;2024-03-06T11:19:33;102142.91;;;5.91;67.00
51313;BME280;37397;53.226;10.400;2024-03-06T11:28:22;102138.03;;;5.95;67.22
51313;BME280;37397;53.226;10.400;2024-03-06T11:31:06;102142.50;;;5.96;66.77
51313;BME280;37397;53.226;10.400;2024-03-06T11:33:43;102143.28;;;6.00;66.81
51313;BME280;37397;53.226;10.400;2024-03-06T11:39:06;102145.28;;;6.03;66.78
51313;BME280;37397;53.226;10.400;2024-03-06T11:44:06;102135.56;;;6.04;66.85
51313;BME280;37397;53.226;10.400;2024-03-06T11:46:49;102140.41;;;6.07;66.78
51313;BME280;37397;53.226;10.400;2024-03-06T11:49:17;102146.78;;;6.15;67.00
51313;BME280;37397;53.226;10.400;2024-03-06T11:51:53;102141.13;;;6.15;66.61
51313;BME280;37397;53.226;10.400;2024-03-06T11:54:20;102143.13;;;6.18;67.00
51313;BME280;37397;53.226;10.400;2024-03-06T11:56:51;102136.28;;;6.15;66.86
51313;BME280;37397;53.226;10.400;2024-03-06T11:59:28;102147.53;;;6.23;66.77
51313;BME280;37397;53.226;10.400;2024-03-06T12:01:56;102139.41;;;6.25;66.72
51313;BME280;37397;53.226;10.400;2024-03-06T12:04:24;102145.50;;;6.27;66.66
51313;BME280;37397;53.226;10.400;2024-03-06T12:06:50;102151.97;;;6.27;66.61
51313;BME280;37397;53.226;10.400;2024-03-06T12:09:18;102143.03;;;6.29;66.76
51313;BME280;37397;53.226;10.400;2024-03-06T12:11:44;102143.41;;;6.31;66.56
51313;BME280;37397;53.226;10.400;2024-03-06T12:14:17;102142.59;;;6.34;66.65
51313;BME280;37397;53.226;10.400;2024-03-06T12:16:54;102149.03;;;6.38;66.52
51313;BME280;37397;53.226;10.400;2024-03-06T12:19:21;102148.19;;;6.41;66.49
51313;BME280;37397;53.226;10.400;2024-03-06T12:21:48;102148.56;;;6.43;66.52
51313;BME280;37397;53.226;10.400;2024-03-06T12:24:16;102143.31;;;6.42;66.52
51313;BME280;37397;53.226;10.400;2024-03-06T12:26:46;102153.41;;;6.46;66.73
51313;BME280;37397;53.226;10.400;2024-03-06T12:29:18;102147.31;;;6.48;66.69
51313;BME280;37397;53.226;10.400;2024-03-06T12:31:47;102144.44;;;6.51;66.72
51313;BME280;37397;53.226;10.400;2024-03-06T12:34:14;102144.81;;;6.53;66.77
51313;BME280;37397;53.226;10.400;2024-03-06T12:36:44;102150.47;;;6.57;66.31
51313;BME280;37397;53.226;10.400;2024-03-06T12:39:15;102145.97;;;6.60;66.65
51313;BME280;37397;53.226;10.400;2024-03-06T12:41:44;102149.19;;;6.62;66.54
51313;BME280;37397;53.226;10.400;2024-03-06T12:44:12;102145.94;;;6.63;66.60
51313;BME280;37397;53.226;10.400;2024-03-06T12:46:38;102144.66;;;6.68;66.68
51313;BME280;37397;53.226;10.400;2024-03-06T12:49:05;102142.25;;;6.70;66.53
51313;BME280;37397;53.226;10.400;2024-03-06T12:51:31;102148.63;;;6.78;66.69
51313;BME280;37397;53.226;10.400;2024-03-06T12:54:00;102146.97;;;6.80;66.74
51313;BME280;37397;53.226;10.400;2024-03-06T12:56:27;102134.00;;;6.79;66.79
51313;BME280;37397;53.226;10.400;2024-03-06T12:58:54;102140.84;;;6.85;66.85
51313;BME280;37397;53.226;10.400;2024-03-06T13:01:20;102138.38;;;6.87;66.80
51313;BME280;37397;53.226;10.400;2024-03-06T13:03:47;102134.69;;;6.90;66.65
51313;BME280;37397;53.226;10.400;2024-03-06T13:06:13;102131.84;;;6.90;66.54
51313;BME280;37397;53.226;10.400;2024-03-06T13:08:41;102143.97;;;6.94;66.83
51313;BME280;37397;53.226;10.400;2024-03-06T13:11:07;102137.84;;;7.00;66.60
51313;BME280;37397;53.226;10.400;2024-03-06T13:13:36;102141.88;;;7.02;66.72